Time;durP1;ratioP1;P1;durP2;ratioP2;P2;SDS_P1;SDS_P2;PMS_P1;PMS_P2;Temp;Humidity;BMP_temperature;BMP_pressure;BME280_temperature;BME280_humidity;BME280_pressure;Samples;Min_cycle;Max_cycle;Signal;HPM_P1;HPM_P2
2021/04/26 00:02:12;;;;;;;9.93;5.65;;;19.10;99.90;;;;;;4893412;29;20120;-68
2021/04/26 00:04:39;;;;;;;10.02;5.65;;;19.20;99.90;;;;;;4895935;29;20111;-68
2021/04/26 00:07:07;;;;;;;8.82;5.82;;;19.20;99.90;;;;;;4894254;29;20734;-67
2021/04/26 00:09:34;;;;;;;10.55;6.05;;;18.80;99.90;;;;;;4897180;29;20041;-68
2021/04/26 00:12:02;;;;;;;12.20;5.80;;;18.80;99.90;;;;;;4882473;29;20616;-67
2021/04/26 00:14:29;;;;;;;15.50;6.60;;;19.00;99.90;;;;;;4894862;29;20044;-67
2021/04/26 00:16:56;;;;;;;13.25;5.85;;;19.10;99.90;;;;;;4895243;29;20108;-67
2021/04/26 00:19:24;;;;;;;12.38;6.05;;;19.30;99.90;;;;;;4895753;29;20029;-68
2021/04/26 00:21:51;;;;;;;10.20;5.75;;;19.40;99.90;;;;;;4895172;29;20044;-68
2021/04/26 00:24:18;;;;;;;13.50;6.40;;;19.40;99.90;;;;;;4897192;29;20036;-68
2021/04/26 00:26:46;;;;;;;11.68;5.78;;;19.50;99.90;;;;;;4889690;29;20112;-68
2021/04/26 00:29:13;;;;;;;8.65;5.40;;;19.80;99.90;;;;;;4895773;29;20093;-68
2021/04/26 00:31:40;;;;;;;9.05;4.85;;;20.20;99.90;;;;;;4894400;29;20379;-66
2021/04/26 00:34:08;;;;;;;7.82;4.70;;;20.50;99.90;;;;;;4895585;29;20117;-68
2021/04/26 00:36:35;;;;;;;8.20;4.80;;;20.40;99.90;;;;;;4894056;29;20505;-66
2021/04/26 00:39:02;;;;;;;7.10;4.38;;;20.00;99.90;;;;;;4893727;29;20096;-68
2021/04/26 00:41:30;;;;;;;7.95;4.65;;;20.10;99.90;;;;;;4895076;29;20075;-68
2021/04/26 00:43:57;;;;;;;11.38;5.05;;;19.90;99.90;;;;;;4892442;29;20108;-67
2021/04/26 00:46:24;;;;;;;8.68;4.22;;;20.30;99.90;;;;;;4897595;29;20045;-67
2021/04/26 00:48:52;;;;;;;9.82;4.82;;;20.40;99.90;;;;;;4898550;29;20039;-65
2021/04/26 00:51:19;;;;;;;10.82;5.13;;;20.10;99.90;;;;;;4896745;29;20036;-67
2021/04/26 00:53:47;;;;;;;12.57;5.13;;;20.00;99.90;;;;;;4897811;29;20127;-67
2021/04/26 00:56:14;;;;;;;8.27;4.30;;;20.10;99.90;;;;;;4904666;29;20489;-67
2021/04/26 00:58:41;;;;;;;7.40;4.20;;;20.50;99.90;;;;;;4898390;29;20033;-67
2021/04/26 01:01:09;;;;;;;14.05;4.18;;;20.60;99.90;;;;;;4902770;29;20171;-67
2021/04/26 01:03:37;;;;;;;8.82;4.20;;;20.20;99.90;;;;;;4895442;29;20043;-66
2021/04/26 01:06:04;;;;;;;6.47;4.43;;;20.70;99.90;;;;;;4909900;29;20713;-67
2021/04/26 01:08:32;;;;;;;8.77;5.28;;;20.80;99.90;;;;;;4915880;29;20036;-67
2021/04/26 01:11:00;;;;;;;10.23;4.78;;;21.00;99.90;;;;;;4921778;29;20453;-67
2021/04/26 01:14:01;;;;;;;10.23;4.70;;;20.90;99.90;;;;;;4913472;29;20051;-67
2021/04/26 01:16:55;;;;;;;7.57;4.57;;;21.30;99.90;;;;;;4863742;29;20052;-67
2021/04/26 01:20:11;;;;;;;8.60;4.55;;;21.40;99.90;;;;;;4913537;29;20039;-67
2021/04/26 01:23:15;;;;;;;10.82;5.00;;;21.00;99.90;;;;;;4919214;29;20520;-67
2021/04/26 01:25:44;;;;;;;7.18;4.55;;;21.30;99.90;;;;;;4911213;29;20040;-67
2021/04/26 01:28:50;;;;;;;11.80;5.00;;;21.30;99.90;;;;;;4917592;29;20040;-67
2021/04/26 01:31:27;;;;;;;10.75;5.18;;;20.80;99.90;;;;;;4914877;29;20047;-67
2021/04/26 01:33:58;;;;;;;9.40;5.53;;;20.70;99.90;;;;;;4915442;29;20044;-68
2021/04/26 01:36:30;;;;;;;7.75;5.00;;;20.90;99.90;;;;;;4916991;29;20069;-67
2021/04/26 01:39:00;;;;;;;9.57;4.97;;;21.00;99.90;;;;;;4915585;29;20040;-68
2021/04/26 01:41:29;;;;;;;9.15;4.28;;;21.50;99.90;;;;;;4917086;29;20024;-68
2021/04/26 01:43:57;;;;;;;10.57;5.10;;;21.20;99.90;;;;;;4915939;29;20036;-67
2021/04/26 01:46:26;;;;;;;10.63;4.78;;;21.10;99.90;;;;;;4901827;29;20501;-67
2021/04/26 01:48:56;;;;;;;8.63;4.68;;;21.50;99.90;;;;;;4914828;29;20062;-67
2021/04/26 01:51:23;;;;;;;8.32;3.75;;;21.50;99.90;;;;;;4915299;29;20032;-67
2021/04/26 01:53:52;;;;;;;12.18;5.43;;;21.50;99.90;;;;;;4915234;29;20040;-67
2021/04/26 01:56:20;;;;;;;10.20;4.97;;;22.00;99.90;;;;;;4918062;29;20075;-67
2021/04/26 01:58:51;;;;;;;7.95;4.30;;;21.70;99.90;;;;;;4912454;29;20098;-67
2021/04/26 02:01:21;;;;;;;9.57;4.43;;;21.60;99.90;;;;;;4916338;29;20391;-67
2021/04/26 02:03:58;;;;;;;9.13;4.43;;;21.30;99.90;;;;;;4916034;29;20497;-67
2021/04/26 02:06:26;;;;;;;8.40;4.15;;;21.30;99.90;;;;;;4918223;29;20052;-67
2021/04/26 02:08:55;;;;;;;8.60;4.78;;;21.80;99.90;;;;;;4915686;29;20509;-67
2021/04/26 02:11:22;;;;;;;9.30;5.53;;;21.80;99.90;;;;;;4922729;29;20040;-67
2021/04/26 02:13:50;;;;;;;8.18;4.90;;;21.90;99.90;;;;;;4902583;29;20200;-67
2021/04/26 02:16:18;;;;;;;13.27;5.22;;;21.90;99.90;;;;;;4927340;29;20036;-66
2021/04/26 02:18:46;;;;;;;8.63;4.32;;;22.40;99.90;;;;;;4922973;29;20056;-67
2021/04/26 02:21:14;;;;;;;9.63;4.57;;;22.60;99.90;;;;;;4932002;29;20489;-66
2021/04/26 02:23:41;;;;;;;11.88;4.97;;;22.60;99.90;;;;;;4919166;29;20047;-67
2021/04/26 02:26:08;;;;;;;12.30;5.53;;;22.40;99.90;;;;;;4919987;29;20107;-67
2021/04/26 02:28:36;;;;;;;11.05;5.28;;;22.20;99.90;;;;;;4916053;29;20048;-67
2021/04/26 02:31:04;;;;;;;6.28;4.68;;;22.30;99.90;;;;;;4897965;29;20107;-66
2021/04/26 02:33:36;;;;;;;11.57;5.45;;;22.40;99.90;;;;;;4918448;29;20027;-66
2021/04/26 02:36:07;;;;;;;9.88;4.82;;;22.20;99.90;;;;;;4936357;29;20039;-66
2021/04/26 02:38:39;;;;;;;10.93;5.50;;;22.80;99.90;;;;;;4918382;29;20032;-66
2021/04/26 02:41:13;;;;;;;7.53;4.53;;;23.10;99.90;;;;;;4917191;29;20044;-66
2021/04/26 02:43:49;;;;;;;10.85;4.15;;;23.40;99.90;;;;;;4918507;29;20091;-66
2021/04/26 02:46:20;;;;;;;8.75;3.90;;;23.40;99.30;;;;;;4936070;29;20050;-66
2021/04/26 02:48:49;;;;;;;10.48;4.95;;;23.50;99.90;;;;;;4917275;29;20040;-67
2021/04/26 02:51:18;;;;;;;7.45;3.97;;;22.50;99.70;;;;;;4915744;29;20054;-67
2021/04/26 02:53:46;;;;;;;8.32;4.10;;;22.60;99.90;;;;;;4907566;29;20441;-68
2021/04/26 02:56:18;;;;;;;7.82;3.78;;;22.70;99.40;;;;;;4903312;29;20040;-67
2021/04/26 02:58:47;;;;;;;6.90;3.72;;;23.20;99.60;;;;;;4902658;29;20437;-67
2021/04/26 03:01:16;;;;;;;9.50;3.85;;;23.40;98.10;;;;;;4926602;29;20032;-67
2021/04/26 03:03:45;;;;;;;9.25;4.03;;;23.60;99.20;;;;;;4904040;29;20071;-67
2021/04/26 03:06:15;;;;;;;6.57;3.60;;;23.70;98.50;;;;;;4915596;29;20405;-68
2021/04/26 03:08:42;;;;;;;7.68;4.22;;;23.80;97.20;;;;;;4894648;29;20045;-67
2021/04/26 03:11:12;;;;;;;8.15;3.70;;;23.70;97.00;;;;;;4912823;29;20099;-68
2021/04/26 03:13:41;;;;;;;9.63;3.78;;;23.60;97.60;;;;;;4910738;29;20119;-68
2021/04/26 03:16:09;;;;;;;9.00;3.95;;;23.50;97.00;;;;;;4913524;29;20125;-68
2021/04/26 03:18:38;;;;;;;6.03;3.50;;;23.10;97.30;;;;;;4911042;29;20453;-68
2021/04/26 03:21:10;;;;;;;5.43;3.15;;;23.00;96.60;;;;;;4911522;29;20037;-67
2021/04/26 03:23:38;;;;;;;7.03;3.10;;;23.10;97.50;;;;;;4899402;29;20402;-68
2021/04/26 03:26:08;;;;;;;6.32;2.90;;;22.80;96.30;;;;;;4898898;29;20451;-68
2021/04/26 03:28:42;;;;;;;7.43;3.67;;;22.80;96.90;;;;;;4911153;29;20397;-68
2021/04/26 03:31:11;;;;;;;8.57;3.50;;;23.00;97.00;;;;;;4897488;29;20036;-68
2021/04/26 03:33:39;;;;;;;6.15;3.22;;;22.80;99.30;;;;;;4914469;29;20048;-68
2021/04/26 03:36:07;;;;;;;7.32;3.33;;;23.20;99.50;;;;;;4915210;29;20051;-67
2021/04/26 03:38:37;;;;;;;7.30;3.70;;;23.20;99.20;;;;;;4911963;29;20044;-68
2021/04/26 03:41:05;;;;;;;8.50;3.17;;;23.20;99.20;;;;;;4913619;29;20048;-67
2021/04/26 03:43:32;;;;;;;7.13;3.40;;;22.80;99.90;;;;;;4897906;29;20067;-67
2021/04/26 03:46:00;;;;;;;8.43;3.42;;;22.90;99.50;;;;;;4913935;29;20124;-67
2021/04/26 03:48:27;;;;;;;7.13;2.65;;;22.20;99.90;;;;;;4896016;29;20050;-67
2021/04/26 03:50:55;;;;;;;8.52;3.13;;;22.10;99.90;;;;;;4916068;29;20127;-67
2021/04/26 03:53:22;;;;;;;8.07;3.13;;;22.30;99.90;;;;;;4910256;29;20075;-68
2021/04/26 03:55:49;;;;;;;8.13;3.30;;;21.80;99.90;;;;;;4907930;29;20607;-68
2021/04/26 03:58:16;;;;;;;10.07;3.60;;;21.60;99.90;;;;;;4914091;29;20163;-67
2021/04/26 04:00:44;;;;;;;9.30;4.20;;;21.10;99.90;;;;;;4916380;29;20036;-68
2021/04/26 04:03:13;;;;;;;9.40;3.83;;;20.90;99.90;;;;;;4904514;29;20209;-67
2021/04/26 04:05:42;;;;;;;7.95;3.00;;;20.80;99.90;;;;;;4915679;29;20385;-67
2021/04/26 04:08:10;;;;;;;7.60;3.75;;;21.50;99.90;;;;;;4912542;29;20032;-68
2021/04/26 04:10:37;;;;;;;6.45;3.20;;;21.10;99.90;;;;;;4918623;29;20047;-68
2021/04/26 04:13:04;;;;;;;8.70;3.30;;;21.10;99.90;;;;;;4921741;29;20071;-67
2021/04/26 04:15:32;;;;;;;9.65;3.28;;;20.90;99.90;;;;;;4913622;29;20111;-67
2021/04/26 04:17:59;;;;;;;7.78;3.03;;;20.80;99.90;;;;;;4917606;29;20126;-68
2021/04/26 04:20:27;;;;;;;4.82;3.08;;;20.80;99.90;;;;;;4919544;29;20040;-67
2021/04/26 04:22:54;;;;;;;6.65;2.70;;;21.20;99.90;;;;;;4916217;29;20043;-67
2021/04/26 04:25:21;;;;;;;10.02;3.10;;;21.00;99.90;;;;;;4902791;29;20113;-68
2021/04/26 04:27:49;;;;;;;9.70;3.33;;;20.90;99.90;;;;;;4920988;29;20106;-67
2021/04/26 04:30:17;;;;;;;5.18;2.50;;;20.90;99.90;;;;;;4917022;29;20033;-68
2021/04/26 04:32:44;;;;;;;7.32;3.03;;;21.00;99.90;;;;;;4890568;29;20718;-68
2021/04/26 04:35:12;;;;;;;7.30;3.92;;;20.90;99.90;;;;;;4918665;29;20036;-67
2021/04/26 04:37:39;;;;;;;8.73;3.28;;;20.70;99.90;;;;;;4918713;29;20037;-67
2021/04/26 04:40:07;;;;;;;7.25;4.18;;;20.50;99.90;;;;;;4916335;29;20028;-67
2021/04/26 04:42:34;;;;;;;6.00;2.90;;;20.50;99.90;;;;;;4914394;29;20036;-67
2021/04/26 04:45:01;;;;;;;11.52;3.33;;;20.50;99.90;;;;;;4914989;29;20136;-67
2021/04/26 04:47:29;;;;;;;7.18;3.45;;;20.50;99.90;;;;;;4916469;29;20379;-67
2021/04/26 04:49:56;;;;;;;4.95;3.00;;;20.50;99.90;;;;;;4918612;29;20127;-67
2021/04/26 04:52:23;;;;;;;9.48;3.90;;;20.50;99.90;;;;;;4916204;29;20127;-68
2021/04/26 04:54:51;;;;;;;6.28;2.70;;;20.50;99.90;;;;;;4917753;29;20036;-67
2021/04/26 04:57:18;;;;;;;6.57;3.72;;;20.30;99.90;;;;;;4913515;29;20501;-67
2021/04/26 04:59:45;;;;;;;7.70;3.40;;;20.20;99.90;;;;;;4912292;29;20036;-67
2021/04/26 05:02:12;;;;;;;10.95;5.13;;;20.00;99.90;;;;;;4914992;29;20467;-67
2021/04/26 05:04:40;;;;;;;8.45;3.38;;;20.00;99.90;;;;;;4914472;29;20094;-67
2021/04/26 05:07:08;;;;;;;6.80;3.03;;;19.90;99.90;;;;;;4896798;29;20063;-67
2021/04/26 05:09:35;;;;;;;8.80;4.15;;;20.00;99.90;;;;;;4914726;29;20044;-67
2021/04/26 05:12:02;;;;;;;8.68;3.60;;;20.00;99.90;;;;;;4914097;29;20096;-67
2021/04/26 05:14:31;;;;;;;6.00;3.50;;;19.90;99.90;;;;;;4916658;29;20528;-67
2021/04/26 05:16:58;;;;;;;7.28;3.40;;;19.90;99.90;;;;;;4916032;29;20460;-68
2021/04/26 05:19:25;;;;;;;10.30;3.75;;;20.00;99.90;;;;;;4915998;29;20036;-67
2021/04/26 05:21:53;;;;;;;6.63;3.33;;;19.80;99.90;;;;;;4898562;29;20036;-68
2021/04/26 05:24:20;;;;;;;8.73;4.03;;;19.80;99.90;;;;;;4914171;29;20044;-67
2021/04/26 05:26:48;;;;;;;9.82;3.70;;;19.70;99.90;;;;;;4914742;29;20055;-68
2021/04/26 05:29:15;;;;;;;8.27;3.88;;;19.70;99.90;;;;;;4914535;29;20405;-68
2021/04/26 05:31:42;;;;;;;7.38;4.50;;;19.60;99.90;;;;;;4917455;29;20032;-68
2021/04/26 05:34:10;;;;;;;8.30;3.80;;;19.70;99.90;;;;;;4900777;29;20083;-68
2021/04/26 05:36:37;;;;;;;11.57;3.90;;;19.60;99.90;;;;;;4905129;29;20041;-68
2021/04/26 05:39:05;;;;;;;8.98;3.75;;;19.60;99.90;;;;;;4914281;29;20040;-68
2021/04/26 05:41:32;;;;;;;9.27;4.55;;;19.60;99.90;;;;;;4921571;29;20053;-68
2021/04/26 05:44:00;;;;;;;8.38;4.45;;;19.60;99.90;;;;;;4899562;29;20127;-68
2021/04/26 05:46:27;;;;;;;8.70;3.78;;;19.70;99.90;;;;;;4918256;29;20052;-68
2021/04/26 05:48:55;;;;;;;7.47;3.50;;;19.60;99.90;;;;;;4911757;29;20051;-68
2021/04/26 05:51:23;;;;;;;7.28;3.55;;;19.60;99.90;;;;;;4921764;29;20048;-68
2021/04/26 05:53:50;;;;;;;8.75;3.38;;;19.50;99.90;;;;;;4914549;29;20512;-68
2021/04/26 05:56:18;;;;;;;7.55;3.60;;;19.50;99.90;;;;;;4931205;29;20028;-68
2021/04/26 05:58:45;;;;;;;10.80;3.90;;;19.30;99.90;;;;;;4917930;29;20414;-68
2021/04/26 06:01:13;;;;;;;7.55;3.47;;;19.40;99.90;;;;;;4917024;29;20054;-68
2021/04/26 06:03:40;;;;;;;7.60;3.65;;;19.40;99.90;;;;;;4915246;29;20085;-68
2021/04/26 06:06:07;;;;;;;10.57;4.47;;;19.20;99.90;;;;;;4916783;29;20397;-68
2021/04/26 06:08:36;;;;;;;8.75;4.03;;;19.20;99.90;;;;;;4915476;29;20036;-67
2021/04/26 06:11:04;;;;;;;11.48;5.25;;;19.20;99.90;;;;;;4899631;29;20523;-68
2021/04/26 06:13:31;;;;;;;7.85;4.38;;;19.10;99.90;;;;;;4916124;29;20482;-68
2021/04/26 06:15:58;;;;;;;10.98;4.20;;;19.00;99.90;;;;;;4914449;29;20107;-68
2021/04/26 06:18:25;;;;;;;10.75;4.65;;;18.90;99.90;;;;;;4915492;29;20040;-68
2021/04/26 06:20:54;;;;;;;7.68;4.15;;;19.00;99.90;;;;;;4915605;29;20037;-68
2021/04/26 06:23:22;;;;;;;10.20;4.50;;;19.00;99.90;;;;;;4924475;29;20123;-67
2021/04/26 06:25:49;;;;;;;7.18;3.95;;;19.00;99.90;;;;;;4936030;29;20389;-67
2021/04/26 06:28:17;;;;;;;9.13;4.53;;;19.00;99.90;;;;;;4921726;29;20040;-67
2021/04/26 06:30:46;;;;;;;11.35;3.92;;;18.90;99.90;;;;;;4922917;29;20048;-68
2021/04/26 06:33:17;;;;;;;10.85;4.03;;;18.80;99.90;;;;;;4922394;29;20028;-67
2021/04/26 06:35:50;;;;;;;8.15;3.70;;;18.80;99.90;;;;;;4917047;29;20486;-68
2021/04/26 06:38:19;;;;;;;7.17;3.33;;;18.70;99.90;;;;;;4915522;29;20036;-68
2021/04/26 06:40:47;;;;;;;6.63;3.60;;;18.70;99.90;;;;;;4914978;29;20048;-67
2021/04/26 06:43:16;;;;;;;6.40;3.10;;;18.70;99.90;;;;;;4915026;29;20036;-67
2021/04/26 06:45:44;;;;;;;10.00;3.33;;;18.70;99.90;;;;;;4916893;29;20032;-68
2021/04/26 06:48:15;;;;;;;9.52;2.70;;;18.70;99.90;;;;;;4914862;29;20036;-68
2021/04/26 06:50:43;;;;;;;5.93;2.70;;;18.70;99.90;;;;;;4916631;29;20120;-67
2021/04/26 06:53:11;;;;;;;8.18;3.17;;;18.60;99.90;;;;;;4908214;29;20119;-67
2021/04/26 06:55:38;;;;;;;12.75;3.95;;;18.50;99.90;;;;;;4912011;29;20051;-68
2021/04/26 06:58:06;;;;;;;6.68;3.03;;;18.50;99.90;;;;;;4913263;29;20041;-68
2021/04/26 07:00:34;;;;;;;6.97;2.75;;;18.40;99.90;;;;;;4914894;29;20047;-68
2021/04/26 07:03:03;;;;;;;8.93;3.20;;;18.40;99.90;;;;;;4915196;29;20036;-67
2021/04/26 07:05:30;;;;;;;5.63;2.65;;;18.30;99.90;;;;;;4916378;29;20082;-68
2021/04/26 07:07:58;;;;;;;4.38;3.03;;;18.30;99.90;;;;;;4915165;29;20056;-67
2021/04/26 07:10:25;;;;;;;7.20;2.88;;;18.30;99.90;;;;;;4914691;29;20051;-68
2021/04/26 07:12:52;;;;;;;8.90;3.47;;;18.30;99.90;;;;;;4896509;29;20154;-67
2021/04/26 07:15:19;;;;;;;6.53;3.20;;;18.20;99.90;;;;;;4912398;29;20127;-67
2021/04/26 07:17:47;;;;;;;5.88;3.03;;;18.20;99.90;;;;;;4897759;29;20040;-68
2021/04/26 07:20:15;;;;;;;10.05;3.45;;;18.10;99.90;;;;;;4912629;29;20032;-68
2021/04/26 07:22:43;;;;;;;8.38;3.50;;;18.10;99.90;;;;;;4897034;29;20047;-68
2021/04/26 07:25:11;;;;;;;11.63;3.80;;;18.10;99.90;;;;;;4909980;29;20409;-68
2021/04/26 07:27:39;;;;;;;7.70;3.47;;;18.10;99.90;;;;;;4913711;29;20461;-68
2021/04/26 07:30:08;;;;;;;7.63;3.05;;;18.10;99.90;;;;;;4897600;29;20048;-68
2021/04/26 07:32:36;;;;;;;9.80;4.88;;;18.10;99.90;;;;;;4912036;29;20071;-68
2021/04/26 07:35:05;;;;;;;8.95;3.70;;;18.10;99.90;;;;;;4898751;29;20397;-68
2021/04/26 07:37:32;;;;;;;8.25;3.53;;;18.00;99.90;;;;;;4908776;29;20500;-68
2021/04/26 07:40:00;;;;;;;10.20;4.38;;;18.00;99.90;;;;;;4914747;29;20032;-68
2021/04/26 07:42:27;;;;;;;10.48;4.32;;;18.10;99.90;;;;;;4913795;29;20100;-68
2021/04/26 07:44:54;;;;;;;7.68;2.78;;;18.00;99.90;;;;;;4916337;29;20071;-68
2021/04/26 07:47:21;;;;;;;8.05;2.85;;;18.00;99.90;;;;;;4898740;29;20040;-68
2021/04/26 07:49:49;;;;;;;10.07;3.95;;;17.90;99.90;;;;;;4912241;29;20047;-70
2021/04/26 07:52:16;;;;;;;7.35;3.72;;;17.90;99.90;;;;;;4912260;29;20047;-69
2021/04/26 07:54:43;;;;;;;9.02;4.13;;;17.90;99.90;;;;;;4899012;29;20036;-69
2021/04/26 07:57:10;;;;;;;7.53;3.42;;;17.80;99.90;;;;;;4912542;29;20032;-69
2021/04/26 07:59:38;;;;;;;15.23;5.20;;;17.80;99.90;;;;;;4898655;29;20052;-69
2021/04/26 08:02:05;;;;;;;8.13;3.85;;;17.80;99.90;;;;;;4896919;29;20631;-69
2021/04/26 08:04:32;;;;;;;9.38;4.15;;;17.70;99.90;;;;;;4915940;29;20032;-69
2021/04/26 08:07:00;;;;;;;10.40;4.18;;;17.70;99.90;;;;;;4910528;29;22285;-68
2021/04/26 08:09:27;;;;;;;9.68;4.25;;;17.70;99.90;;;;;;4913202;29;20048;-69
2021/04/26 08:11:54;;;;;;;8.55;4.20;;;17.70;99.90;;;;;;4910801;29;20036;-69
2021/04/26 08:14:21;;;;;;;9.63;2.80;;;17.70;99.90;;;;;;4913731;29;20035;-69
2021/04/26 08:16:49;;;;;;;8.20;3.08;;;17.70;99.90;;;;;;4916291;29;20058;-69
2021/04/26 08:19:16;;;;;;;7.28;2.72;;;17.70;99.90;;;;;;4913830;29;20032;-69
2021/04/26 08:21:45;;;;;;;6.80;2.47;;;17.70;99.90;;;;;;4915177;29;20035;-69
2021/04/26 08:24:13;;;;;;;5.38;2.83;;;17.70;99.90;;;;;;4915735;29;20032;-69
2021/04/26 08:26:40;;;;;;;7.90;2.97;;;17.70;99.90;;;;;;4915252;29;20047;-69
2021/04/26 08:29:08;;;;;;;4.45;1.80;;;17.70;99.90;;;;;;4913744;29;20040;-68
2021/04/26 08:31:35;;;;;;;10.57;3.25;;;17.60;99.90;;;;;;4906752;29;20036;-69
2021/04/26 08:34:03;;;;;;;5.65;2.17;;;17.60;99.90;;;;;;4913610;29;20134;-69
2021/04/26 08:36:30;;;;;;;7.68;2.30;;;17.60;99.90;;;;;;4914197;29;20036;-69
2021/04/26 08:38:57;;;;;;;6.80;2.63;;;17.60;99.90;;;;;;4911721;29;20040;-69
2021/04/26 08:41:25;;;;;;;4.07;2.00;;;17.60;99.90;;;;;;4900617;29;20040;-69
2021/04/26 08:43:52;;;;;;;8.13;2.58;;;17.60;99.90;;;;;;4915356;29;20044;-69
2021/04/26 08:46:19;;;;;;;4.80;2.40;;;17.60;99.90;;;;;;4915084;29;20070;-69
2021/04/26 08:48:47;;;;;;;5.00;2.35;;;17.50;99.90;;;;;;4915261;29;20043;-69
2021/04/26 08:51:14;;;;;;;5.30;2.10;;;17.50;99.90;;;;;;4914272;29;20119;-69
2021/04/26 08:53:41;;;;;;;6.28;2.42;;;17.40;99.90;;;;;;4914147;29;20047;-69
2021/04/26 08:56:09;;;;;;;7.82;2.55;;;17.40;99.90;;;;;;4915014;29;20036;-68
2021/04/26 08:58:37;;;;;;;7.40;2.65;;;17.40;99.90;;;;;;4914800;29;20119;-68
2021/04/26 09:01:05;;;;;;;9.30;2.88;;;17.40;99.90;;;;;;4915055;29;20036;-68
2021/04/26 09:03:38;;;;;;;5.47;2.35;;;17.40;99.90;;;;;;4900405;29;20044;-68
2021/04/26 09:06:12;;;;;;;6.22;2.50;;;17.40;99.90;;;;;;4917539;29;20508;-69
2021/04/26 09:08:45;;;;;;;7.70;3.13;;;17.40;99.90;;;;;;4918073;29;20040;-69
2021/04/26 09:11:12;;;;;;;8.43;2.70;;;17.40;99.90;;;;;;4917130;29;20509;-69
2021/04/26 09:13:49;;;;;;;8.43;2.67;;;17.30;99.90;;;;;;4916185;29;20516;-69
2021/04/26 09:16:22;;;;;;;7.43;2.83;;;17.30;99.90;;;;;;4901576;29;20059;-69
2021/04/26 09:18:56;;;;;;;6.82;2.70;;;17.30;99.90;;;;;;4916942;29;20044;-69
2021/04/26 09:21:31;;;;;;;7.97;3.58;;;17.20;99.90;;;;;;4917467;29;20036;-69
2021/04/26 09:24:36;;;;;;;10.50;2.63;;;17.10;99.90;;;;;;4917787;29;20490;-69
2021/04/26 09:27:06;;;;;;;5.55;2.80;;;17.10;99.90;;;;;;4918495;29;20034;-69
2021/04/26 09:29:34;;;;;;;9.48;2.90;;;17.10;99.90;;;;;;4917652;29;20442;-69
2021/04/26 09:32:05;;;;;;;10.10;3.53;;;17.10;99.90;;;;;;4900769;29;20087;-69
2021/04/26 09:34:41;;;;;;;7.32;3.08;;;17.00;99.90;;;;;;4912463;29;20044;-69
2021/04/26 09:37:25;;;;;;;8.07;4.78;;;17.00;99.90;;;;;;4899333;29;20041;-69
2021/04/26 09:40:06;;;;;;;6.30;3.30;;;16.90;99.90;;;;;;4910844;29;20044;-69
2021/04/26 09:42:57;;;;;;;6.63;3.90;;;16.90;99.90;;;;;;4917348;29;20031;-69
2021/04/26 09:45:27;;;;;;;11.25;4.40;;;16.80;99.90;;;;;;4897826;29;20048;-70
2021/04/26 09:48:19;;;;;;;9.77;4.22;;;16.70;99.90;;;;;;4917908;29;20036;-69
2021/04/26 09:50:53;;;;;;;7.22;3.65;;;16.60;99.90;;;;;;4897784;29;20047;-69
2021/04/26 09:53:21;;;;;;;8.48;5.03;;;16.60;99.90;;;;;;4899725;29;20036;-69
2021/04/26 09:55:50;;;;;;;8.23;4.28;;;16.50;99.90;;;;;;4917682;29;20607;-69
2021/04/26 09:58:17;;;;;;;9.55;5.10;;;16.50;99.90;;;;;;4917470;29;20385;-69
2021/04/26 10:00:46;;;;;;;8.95;5.20;;;16.50;99.90;;;;;;4917320;29;20040;-69
2021/04/26 10:03:17;;;;;;;10.13;5.38;;;16.50;99.90;;;;;;4917341;29;20083;-69
2021/04/26 10:05:47;;;;;;;10.00;5.80;;;16.50;99.90;;;;;;4898444;29;20409;-69
2021/04/26 10:08:16;;;;;;;12.27;4.88;;;16.40;99.90;;;;;;4917494;29;20036;-69
2021/04/26 10:10:45;;;;;;;8.52;5.30;;;16.40;99.90;;;;;;4900031;29;20115;-69
2021/04/26 10:13:13;;;;;;;9.25;4.85;;;16.30;99.90;;;;;;4900135;29;20386;-69
2021/04/26 10:15:41;;;;;;;11.27;5.80;;;16.30;99.90;;;;;;4916323;29;20126;-69
2021/04/26 10:18:11;;;;;;;13.00;6.03;;;16.30;99.90;;;;;;4916815;29;20520;-69
2021/04/26 10:20:41;;;;;;;9.80;5.78;;;16.30;99.90;;;;;;4916455;29;20078;-69
2021/04/26 10:23:36;;;;;;;9.13;5.75;;;16.20;99.90;;;;;;4917070;29;20032;-69
2021/04/26 10:26:04;;;;;;;11.00;5.68;;;16.20;99.90;;;;;;4917647;29;20111;-69
2021/04/26 10:28:36;;;;;;;10.70;5.78;;;16.20;99.90;;;;;;4916889;29;20413;-69
2021/04/26 10:31:18;;;;;;;11.88;7.05;;;16.20;99.90;;;;;;4916801;29;20137;-69
2021/04/26 10:34:00;;;;;;;10.25;5.53;;;16.20;99.90;;;;;;4916293;29;20135;-69
2021/04/26 10:36:45;;;;;;;11.15;6.70;;;16.20;99.90;;;;;;4917037;29;20064;-69
2021/04/26 10:39:19;;;;;;;14.52;6.00;;;16.20;99.90;;;;;;4899254;29;20374;-69
2021/04/26 10:41:58;;;;;;;10.48;6.75;;;16.20;99.90;;;;;;4917165;29;20040;-69
2021/04/26 10:44:41;;;;;;;12.80;6.32;;;16.10;99.90;;;;;;4916943;29;20067;-69
2021/04/26 10:47:28;;;;;;;10.20;6.13;;;16.20;99.90;;;;;;4914520;29;20072;-69
2021/04/26 10:50:01;;;;;;;12.45;6.07;;;16.10;99.90;;;;;;4916552;29;20051;-69
2021/04/26 10:52:29;;;;;;;11.88;6.10;;;16.10;99.90;;;;;;4899863;29;20040;-69
2021/04/26 10:55:05;;;;;;;10.75;6.47;;;16.10;99.90;;;;;;4916621;29;20107;-69
2021/04/26 10:57:45;;;;;;;11.88;5.82;;;16.10;99.90;;;;;;4900498;29;20048;-69
2021/04/26 11:00:28;;;;;;;11.98;5.68;;;16.00;99.90;;;;;;4897143;29;20083;-69
2021/04/26 11:03:28;;;;;;;11.60;5.97;;;16.10;99.90;;;;;;4909838;29;20041;-69
2021/04/26 11:06:07;;;;;;;13.40;5.82;;;16.10;99.90;;;;;;4907724;29;20047;-69
2021/04/26 11:08:37;;;;;;;13.43;5.72;;;16.00;99.90;;;;;;4913299;29;20113;-70
2021/04/26 11:11:15;;;;;;;15.27;5.65;;;16.00;99.90;;;;;;4899262;29;20584;-70
2021/04/26 11:13:52;;;;;;;11.60;4.95;;;16.10;99.90;;;;;;4916560;29;20036;-69
2021/04/26 11:16:34;;;;;;;10.45;5.80;;;16.00;99.90;;;;;;4916360;29;20040;-72
2021/04/26 11:19:11;;;;;;;10.65;5.10;;;16.00;99.90;;;;;;4916522;29;20029;-69
2021/04/26 11:21:47;;;;;;;10.43;5.00;;;16.00;99.90;;;;;;4915989;29;20040;-69
2021/04/26 11:24:36;;;;;;;11.70;5.22;;;16.00;99.90;;;;;;4916467;29;20124;-68
2021/04/26 11:27:18;;;;;;;11.50;4.82;;;16.00;99.90;;;;;;4915605;29;20036;-69
2021/04/26 11:29:47;;;;;;;11.00;5.03;;;15.90;99.90;;;;;;4916079;29;20099;-69
2021/04/26 11:32:16;;;;;;;10.80;5.05;;;15.90;99.90;;;;;;4899021;29;20055;-69
2021/04/26 11:34:50;;;;;;;12.60;4.93;;;16.00;99.90;;;;;;4898554;29;20040;-69
2021/04/26 11:37:50;;;;;;;14.30;5.38;;;15.90;99.90;;;;;;4909930;29;20048;-69
2021/04/26 11:40:20;;;;;;;10.80;5.63;;;15.90;99.90;;;;;;4894491;29;20060;-69
2021/04/26 11:42:48;;;;;;;11.50;5.22;;;15.80;99.90;;;;;;4915841;29;20035;-68
2021/04/26 11:45:21;;;;;;;12.38;5.30;;;15.90;99.90;;;;;;4899109;29;20044;-69
2021/04/26 11:47:50;;;;;;;10.73;5.10;;;15.80;99.90;;;;;;4915923;29;20060;-69
2021/04/26 11:50:17;;;;;;;12.63;5.03;;;15.80;99.90;;;;;;4914561;29;20032;-69
2021/04/26 11:52:44;;;;;;;12.27;5.15;;;15.80;99.90;;;;;;4899495;29;20044;-69
2021/04/26 11:55:18;;;;;;;12.95;5.53;;;15.80;99.90;;;;;;4918935;29;20497;-69
2021/04/26 11:57:51;;;;;;;12.55;5.22;;;15.70;99.90;;;;;;4914783;29;20416;-68
2021/04/26 12:00:27;;;;;;;9.02;4.75;;;15.70;99.90;;;;;;4914045;29;20036;-69
2021/04/26 12:03:03;;;;;;;11.98;5.07;;;15.70;99.90;;;;;;4898429;29;20564;-69
2021/04/26 12:05:30;;;;;;;10.73;5.03;;;15.70;99.90;;;;;;4915692;29;20063;-69
2021/04/26 12:07:58;;;;;;;11.27;5.20;;;15.60;99.90;;;;;;4915553;29;20560;-69
2021/04/26 12:10:27;;;;;;;11.05;5.07;;;15.60;99.90;;;;;;4915754;29;20044;-69
2021/04/26 12:13:05;;;;;;;12.05;4.53;;;15.60;99.90;;;;;;4915273;29;20524;-69
2021/04/26 12:15:38;;;;;;;8.95;4.57;;;15.60;99.90;;;;;;4915597;29;20044;-69
2021/04/26 12:18:06;;;;;;;11.50;4.85;;;15.60;99.90;;;;;;4898911;29;20095;-69
2021/04/26 12:20:41;;;;;;;10.55;5.53;;;15.60;99.90;;;;;;4914868;29;20044;-69
2021/04/26 12:23:19;;;;;;;13.75;5.38;;;15.60;99.90;;;;;;4915072;29;20040;-69
2021/04/26 12:25:48;;;;;;;10.82;5.90;;;15.60;99.90;;;;;;4898417;29;20123;-69
2021/04/26 12:28:16;;;;;;;15.52;6.68;;;15.80;99.90;;;;;;4915715;29;20036;-69
2021/04/26 12:30:49;;;;;;;9.88;6.25;;;15.90;99.90;;;;;;4901110;29;20100;-69
2021/04/26 12:33:22;;;;;;;10.73;6.03;;;15.90;99.90;;;;;;4915457;29;20115;-69
2021/04/26 12:35:50;;;;;;;12.90;6.32;;;15.80;99.90;;;;;;4897430;29;20785;-69
2021/04/26 12:38:24;;;;;;;12.77;7.47;;;15.80;99.90;;;;;;4910134;29;20051;-69
2021/04/26 12:40:52;;;;;;;12.25;6.85;;;15.90;99.90;;;;;;4916155;29;20573;-69
2021/04/26 12:43:19;;;;;;;10.45;6.13;;;15.80;99.90;;;;;;4916226;29;20044;-70
2021/04/26 12:45:49;;;;;;;15.50;6.93;;;15.80;99.90;;;;;;4916435;29;20064;-68
2021/04/26 12:48:30;;;;;;;10.02;6.80;;;15.80;99.90;;;;;;4912302;29;20028;-68
2021/04/26 12:50:57;;;;;;;14.70;6.60;;;15.80;99.90;;;;;;4897331;29;20064;-68
2021/04/26 12:53:31;;;;;;;13.82;6.43;;;15.80;99.90;;;;;;4915173;29;20047;-68
2021/04/26 12:56:02;;;;;;;;;;;15.80;99.90;;;;;;4918081;29;20442;-68
2021/04/26 12:58:35;;;;;;;15.57;6.57;;;15.80;99.90;;;;;;4913270;29;19915;-68
2021/04/26 13:01:14;;;;;;;11.35;6.28;;;15.70;99.90;;;;;;4916323;29;20122;-68